createdAt,value
2022-10-24T00:01:16.205Z,12.22
2022-10-24T00:03:43.480Z,12.18
2022-10-24T00:06:12.279Z,12.11
2022-10-24T00:08:39.828Z,12.11
2022-10-24T00:11:21.906Z,12.14
2022-10-24T00:13:49.209Z,12.08
2022-10-24T00:16:16.146Z,12.12
2022-10-24T00:18:43.453Z,12.12
2022-10-24T00:21:10.566Z,12.17
2022-10-24T00:23:37.736Z,12.28
2022-10-24T00:26:05.846Z,12.29
2022-10-24T00:28:35.150Z,12.32
2022-10-24T00:31:02.542Z,12.31
2022-10-24T00:33:29.428Z,12.24
2022-10-24T00:35:56.336Z,12.19
2022-10-24T00:38:23.305Z,12.05
2022-10-24T00:40:50.267Z,12.07
2022-10-24T00:43:20.456Z,12.07
2022-10-24T00:45:49.537Z,12.03
2022-10-24T00:48:29.360Z,12.05
2022-10-24T00:51:01.217Z,12.02
2022-10-24T00:53:29.989Z,11.81
2022-10-24T00:56:00.021Z,11.82
2022-10-24T00:58:29.873Z,11.79
2022-10-24T01:00:56.834Z,11.72
2022-10-24T01:03:24.269Z,11.64
2022-10-24T01:06:03.629Z,11.69
2022-10-24T01:08:30.436Z,11.66
2022-10-24T01:11:14.240Z,11.66
2022-10-24T01:14:22.631Z,11.64
2022-10-24T01:16:59.029Z,11.59
2022-10-24T01:19:46.965Z,11.65
2022-10-24T01:22:46.141Z,11.66
2022-10-24T01:25:39.066Z,11.70
2022-10-24T01:28:20.451Z,11.73
2022-10-24T01:31:01.855Z,11.81
2022-10-24T01:33:38.192Z,11.91
2022-10-24T01:36:14.692Z,11.93
2022-10-24T01:38:46.706Z,11.98
2022-10-24T01:41:23.400Z,11.97
2022-10-24T01:43:56.071Z,12.03
2022-10-24T01:46:32.138Z,12.02
2022-10-24T01:49:09.122Z,12.05
2022-10-24T01:51:38.734Z,12.09
2022-10-24T01:54:06.161Z,12.13
2022-10-24T01:56:33.323Z,12.13
2022-10-24T01:59:31.071Z,12.19
2022-10-24T02:02:30.468Z,12.19
2022-10-24T02:05:02.741Z,12.23
2022-10-24T02:07:33.924Z,12.23
2022-10-24T02:10:05.729Z,12.31
2022-10-24T02:12:33.018Z,12.33
2022-10-24T02:15:08.173Z,12.35
2022-10-24T02:17:35.154Z,12.34
2022-10-24T02:20:02.825Z,12.39
2022-10-24T02:22:40.266Z,12.42
2022-10-24T02:25:14.424Z,12.43
2022-10-24T02:27:49.012Z,12.46
2022-10-24T02:30:22.978Z,12.45
2022-10-24T02:32:53.896Z,12.42
2022-10-24T02:35:26.637Z,12.47
2022-10-24T02:38:00.097Z,12.52
2022-10-24T02:40:27.069Z,12.44
2022-10-24T02:42:56.429Z,12.44
2022-10-24T02:45:24.415Z,12.32
2022-10-24T02:47:56.923Z,12.32
2022-10-24T02:50:24.321Z,12.26
2022-10-24T02:52:51.214Z,12.19
2022-10-24T02:55:18.273Z,12.12
2022-10-24T02:57:45.162Z,12.01
2022-10-24T03:00:12.567Z,11.92
2022-10-24T03:02:39.405Z,11.89
2022-10-24T03:05:06.629Z,11.76
2022-10-24T03:25:43.618Z,10.64
2022-10-24T03:28:10.434Z,10.75
2022-10-24T03:30:37.286Z,10.85
2022-10-24T03:33:04.419Z,10.86
2022-10-24T03:35:31.310Z,10.93
2022-10-24T03:37:58.319Z,11.02
2022-10-24T03:40:25.079Z,11.02
2022-10-24T03:42:51.946Z,10.99
2022-10-24T03:45:18.894Z,11.02
2022-10-24T03:47:45.784Z,11.10
2022-10-24T03:50:12.686Z,11.16
2022-10-24T03:52:39.532Z,11.10
2022-10-24T03:55:06.805Z,11.18
2022-10-24T03:57:33.675Z,11.19
2022-10-24T04:00:00.511Z,11.21
2022-10-24T04:02:27.359Z,11.26
2022-10-24T04:04:54.241Z,11.21
2022-10-24T04:07:21.052Z,11.23
2022-10-24T04:09:47.949Z,11.20
2022-10-24T04:12:15.531Z,11.22
2022-10-24T04:14:42.452Z,11.22
2022-10-24T04:17:09.461Z,11.21
2022-10-24T04:19:36.445Z,11.33
2022-10-24T04:22:03.392Z,11.35
2022-10-24T04:24:30.525Z,11.34
2022-10-24T04:26:57.454Z,11.41
2022-10-24T04:29:24.493Z,11.38
2022-10-24T04:31:51.451Z,11.44
2022-10-24T04:34:18.369Z,11.30
2022-10-24T04:36:45.205Z,11.27
2022-10-24T04:39:12.198Z,11.28
2022-10-24T04:41:39.035Z,11.22
2022-10-24T04:44:05.865Z,11.09
2022-10-24T04:46:33.068Z,11.08
2022-10-24T04:49:02.963Z,10.97
2022-10-24T04:51:30.121Z,10.80
2022-10-24T04:53:56.996Z,10.76
2022-10-24T04:56:26.006Z,10.75
2022-10-24T04:58:53.141Z,10.86
2022-10-24T05:01:20.112Z,10.90
2022-10-24T05:03:47.069Z,10.96
2022-10-24T05:06:14.325Z,10.97
2022-10-24T05:08:41.191Z,10.98
2022-10-24T05:11:09.945Z,11.04
2022-10-24T05:13:37.540Z,11.10
2022-10-24T05:16:05.991Z,11.18
2022-10-24T05:18:32.985Z,11.31
2022-10-24T05:21:00.600Z,11.44
2022-10-24T05:23:28.352Z,11.56
2022-10-24T05:25:55.225Z,11.84
2022-10-24T05:28:22.038Z,12.00
2022-10-24T05:30:49.024Z,12.31
2022-10-24T05:33:15.920Z,12.67
2022-10-24T05:35:43.345Z,13.07
2022-10-24T05:38:10.466Z,13.34
2022-10-24T05:40:37.364Z,14.10
2022-10-24T05:43:04.294Z,15.54
2022-10-24T05:45:31.216Z,17.26
2022-10-24T05:47:58.193Z,19.04
2022-10-24T05:50:26.749Z,21.00
2022-10-24T05:52:54.045Z,22.01
2022-10-24T05:55:20.794Z,23.51
2022-10-24T05:57:48.137Z,24.30
2022-10-24T06:00:16.994Z,25.11
2022-10-24T06:05:16.659Z,26.09
2022-10-24T06:07:43.889Z,26.09
2022-10-24T06:10:12.186Z,27.22
2022-10-24T06:12:39.410Z,25.54
2022-10-24T06:15:09.065Z,23.64
2022-10-24T06:17:36.158Z,25.17
2022-10-24T06:20:03.346Z,25.71
2022-10-24T06:22:30.188Z,25.93
2022-10-24T06:24:57.306Z,25.33
2022-10-24T06:27:24.280Z,25.29
2022-10-24T06:29:51.132Z,25.22
2022-10-24T06:32:18.422Z,26.02
2022-10-24T06:34:45.215Z,25.99
2022-10-24T06:37:12.207Z,26.10
2022-10-24T06:39:39.012Z,25.77
2022-10-24T06:42:05.889Z,25.50
2022-10-24T06:44:32.874Z,24.76
2022-10-24T06:46:59.681Z,25.77
2022-10-24T06:49:26.521Z,25.77
2022-10-24T06:51:53.833Z,27.03
2022-10-24T06:54:21.216Z,27.93
2022-10-24T06:56:49.332Z,28.10
2022-10-24T06:59:17.753Z,28.03
2022-10-24T07:01:45.694Z,28.27
2022-10-24T07:04:12.685Z,29.43
2022-10-24T07:06:40.351Z,27.51
2022-10-24T07:09:10.222Z,28.80
2022-10-24T07:11:39.761Z,30.61
2022-10-24T07:14:09.146Z,32.50
2022-10-24T07:16:36.884Z,33.10
2022-10-24T07:19:04.320Z,32.63
2022-10-24T07:21:32.992Z,33.12
2022-10-24T07:24:00.256Z,33.21
2022-10-24T07:26:28.986Z,34.80
2022-10-24T07:31:34.817Z,33.72
2022-10-24T07:34:04.220Z,33.43
2022-10-24T07:36:31.390Z,35.17
2022-10-24T07:38:59.226Z,33.42
2022-10-24T07:41:28.477Z,33.26
2022-10-24T07:43:57.673Z,32.08
2022-10-24T07:46:26.339Z,32.63
2022-10-24T07:48:54.430Z,33.25
2022-10-24T07:51:22.346Z,34.37
2022-10-24T07:53:50.014Z,33.93
2022-10-24T07:56:17.739Z,32.83
2022-10-24T07:58:46.133Z,31.92
2022-10-24T08:01:19.221Z,30.77
2022-10-24T08:03:46.958Z,31.73
2022-10-24T08:06:17.844Z,32.81
2022-10-24T08:08:45.272Z,33.37
2022-10-24T08:11:15.037Z,35.01
2022-10-24T08:13:42.073Z,35.40
2022-10-24T08:16:11.713Z,35.25
2022-10-24T08:18:40.050Z,34.14
2022-10-24T08:21:09.562Z,35.75
2022-10-24T08:23:39.253Z,32.94
2022-10-24T08:26:07.906Z,33.27
2022-10-24T08:28:35.604Z,32.56
2022-10-24T08:31:05.370Z,29.97
2022-10-24T08:33:32.813Z,33.71
2022-10-24T08:36:02.176Z,36.26
2022-10-24T08:38:29.713Z,35.18
2022-10-24T08:40:58.096Z,34.47
2022-10-24T08:43:25.897Z,36.43
2022-10-24T08:46:37.148Z,34.47
2022-10-24T08:49:30.176Z,34.21
2022-10-24T08:52:05.038Z,32.15
2022-10-24T08:54:39.816Z,32.89
2022-10-24T08:57:10.760Z,32.33
2022-10-24T08:59:38.624Z,34.06
2022-10-24T09:02:12.620Z,33.26
2022-10-24T09:04:51.374Z,33.19
2022-10-24T09:07:22.127Z,33.80
2022-10-24T09:09:51.881Z,31.28
2022-10-24T09:12:22.073Z,30.55
2022-10-24T09:14:59.445Z,29.26
2022-10-24T09:17:29.305Z,30.23
2022-10-24T09:20:00.845Z,32.06
2022-10-24T09:22:32.482Z,31.51
2022-10-24T09:25:01.839Z,30.95
2022-10-24T09:27:32.812Z,31.71
2022-10-24T09:30:00.315Z,32.42
2022-10-24T09:32:33.492Z,31.33
2022-10-24T09:35:04.236Z,31.59
2022-10-24T09:37:47.517Z,29.62
2022-10-24T09:40:28.082Z,29.81
2022-10-24T09:43:16.330Z,29.69
2022-10-24T09:45:50.697Z,29.42
2022-10-24T09:48:42.177Z,29.30
2022-10-24T09:51:09.332Z,29.80
2022-10-24T09:53:41.012Z,30.42
2022-10-24T09:56:15.239Z,30.27
2022-10-24T09:58:42.930Z,30.45
2022-10-24T10:01:23.030Z,31.31
2022-10-24T10:04:09.495Z,30.90
2022-10-24T10:06:44.796Z,30.61
2022-10-24T10:09:14.573Z,31.61
2022-10-24T10:11:49.339Z,31.15
2022-10-24T10:14:29.868Z,31.39
2022-10-24T10:17:02.930Z,30.86
2022-10-24T10:19:35.049Z,31.15
2022-10-24T10:22:20.722Z,30.82
2022-10-24T10:24:47.914Z,30.15
2022-10-24T10:27:25.676Z,29.17
2022-10-24T10:30:21.989Z,29.51
2022-10-24T10:33:14.541Z,29.66
2022-10-24T10:35:51.700Z,30.65
2022-10-24T10:38:43.330Z,29.74
2022-10-24T10:41:22.071Z,30.11
2022-10-24T10:43:57.881Z,29.87
2022-10-24T10:46:57.766Z,30.62
2022-10-24T10:49:30.874Z,29.81
2022-10-24T10:52:05.885Z,29.67
2022-10-24T10:54:59.934Z,29.32
2022-10-24T10:57:32.764Z,29.24
2022-10-24T11:00:21.505Z,29.51
2022-10-24T11:03:16.408Z,29.09
2022-10-24T11:06:01.618Z,28.52
2022-10-24T11:08:46.588Z,27.31
2022-10-24T11:11:19.285Z,26.84
2022-10-24T11:13:54.865Z,26.19
2022-10-24T11:16:27.273Z,27.07
2022-10-24T11:18:59.837Z,26.68
2022-10-24T11:21:30.368Z,26.89
2022-10-24T11:24:18.635Z,28.12
2022-10-24T11:26:59.102Z,28.03
2022-10-24T11:29:51.060Z,26.74
2022-10-24T11:32:22.015Z,27.31
2022-10-24T11:34:56.169Z,26.93
2022-10-24T11:37:36.003Z,27.29
2022-10-24T11:40:15.741Z,26.43
2022-10-24T11:42:45.688Z,26.36
2022-10-24T11:45:16.352Z,25.56
2022-10-24T11:48:23.405Z,24.48
2022-10-24T11:50:55.993Z,23.86
2022-10-24T11:53:45.843Z,22.11
2022-10-24T11:56:27.146Z,20.77
2022-10-24T11:59:06.962Z,19.72
2022-10-24T12:01:55.520Z,19.27
2022-10-24T12:04:40.472Z,19.16
2022-10-24T12:07:25.953Z,19.13
2022-10-24T12:10:30.285Z,19.34
2022-10-24T12:13:22.281Z,19.13
2022-10-24T12:16:16.905Z,18.99
2022-10-24T12:18:46.501Z,18.94
2022-10-24T12:21:21.048Z,19.07
2022-10-24T12:24:00.565Z,19.09
2022-10-24T12:26:35.489Z,19.14
2022-10-24T12:29:05.609Z,19.12
2022-10-24T12:31:34.661Z,18.99
2022-10-24T12:34:19.418Z,18.85
2022-10-24T12:37:32.547Z,18.78
2022-10-24T12:39:59.913Z,18.94
2022-10-24T12:42:26.731Z,18.91
2022-10-24T12:45:06.221Z,18.76
2022-10-24T12:47:43.422Z,18.87
2022-10-24T12:50:22.562Z,18.89
2022-10-24T12:53:14.029Z,18.99
2022-10-24T12:55:40.918Z,18.88
2022-10-24T12:58:25.355Z,18.92
2022-10-24T13:01:01.607Z,18.83
2022-10-24T13:03:46.868Z,18.75
2022-10-24T13:06:45.506Z,18.87
2022-10-24T13:09:15.936Z,18.92
2022-10-24T13:12:01.097Z,18.83
2022-10-24T13:14:36.513Z,18.67
2022-10-24T13:17:39.541Z,18.70
2022-10-24T13:20:14.217Z,18.61
2022-10-24T13:22:45.150Z,18.49
2022-10-24T13:25:51.585Z,18.40
2022-10-24T13:28:22.468Z,18.27
2022-10-24T13:30:53.373Z,18.17
2022-10-24T13:33:32.412Z,18.14
2022-10-24T13:36:26.979Z,18.14
2022-10-24T13:38:58.203Z,18.07
2022-10-24T13:41:43.234Z,18.04
2022-10-24T13:44:18.107Z,18.09
2022-10-24T13:46:57.233Z,18.01
2022-10-24T13:49:31.275Z,17.99
2022-10-24T13:52:01.850Z,17.93
2022-10-24T13:54:35.934Z,17.78
2022-10-24T13:57:02.780Z,17.77
2022-10-24T13:59:37.319Z,17.70
2022-10-24T14:02:15.302Z,17.71
2022-10-24T14:04:48.026Z,17.68
2022-10-24T14:07:26.076Z,17.62
2022-10-24T14:10:21.066Z,17.63
2022-10-24T14:12:52.094Z,17.54
2022-10-24T14:15:22.416Z,17.44
2022-10-24T14:18:08.550Z,17.29
2022-10-24T14:20:37.198Z,17.19
2022-10-24T14:23:22.111Z,17.13
2022-10-24T14:25:55.429Z,17.07
2022-10-24T14:28:34.397Z,17.06
2022-10-24T14:31:04.733Z,17.02
2022-10-24T14:33:41.398Z,16.91
2022-10-24T14:36:08.966Z,16.83
2022-10-24T14:38:37.511Z,16.85
2022-10-24T14:41:10.135Z,16.77
2022-10-24T14:43:42.872Z,16.73
2022-10-24T14:46:12.538Z,16.70
2022-10-24T14:48:49.672Z,16.55
2022-10-24T14:51:31.965Z,16.63
2022-10-24T14:54:01.964Z,16.61
2022-10-24T14:56:30.922Z,16.54
2022-10-24T14:59:00.011Z,16.49
2022-10-24T15:01:27.290Z,16.47
2022-10-24T15:04:03.161Z,16.52
2022-10-24T15:06:40.325Z,16.58
2022-10-24T15:09:13.309Z,16.62
2022-10-24T15:27:41.762Z,15.59
2022-10-24T15:30:20.785Z,15.73
2022-10-24T15:32:49.885Z,15.80
2022-10-24T15:35:18.464Z,15.82
2022-10-24T15:37:56.793Z,15.96
2022-10-24T15:40:30.947Z,15.97
2022-10-24T15:42:57.642Z,16.03
2022-10-24T15:45:25.016Z,16.03
2022-10-24T15:47:53.124Z,15.97
2022-10-24T15:52:52.774Z,16.15
2022-10-24T15:55:22.508Z,16.08
2022-10-24T15:57:50.003Z,16.13
2022-10-24T16:00:20.543Z,16.12
2022-10-24T16:02:50.177Z,16.02
2022-10-24T16:05:26.751Z,16.07
2022-10-24T16:07:54.048Z,15.99
2022-10-24T16:10:22.691Z,16.06
2022-10-24T16:12:50.664Z,15.96
2022-10-24T16:15:28.338Z,15.96
2022-10-24T16:17:55.816Z,16.05
2022-10-24T16:20:22.701Z,16.10
2022-10-24T16:22:50.085Z,16.11
2022-10-24T16:25:20.750Z,16.15
2022-10-24T16:27:51.094Z,16.17
2022-10-24T16:30:20.668Z,16.17
2022-10-24T16:32:48.374Z,16.15
2022-10-24T16:35:21.912Z,16.19
2022-10-24T16:37:48.771Z,16.14
2022-10-24T16:40:15.970Z,16.16
2022-10-24T16:42:43.180Z,16.19
2022-10-24T16:45:10.701Z,16.20
2022-10-24T16:47:37.707Z,16.09
2022-10-24T16:50:05.208Z,16.08
2022-10-24T16:52:32.243Z,16.11
2022-10-24T16:54:59.094Z,16.17
2022-10-24T16:57:26.183Z,16.16
2022-10-24T16:59:52.973Z,16.10
2022-10-24T17:02:19.842Z,16.19
2022-10-24T17:04:46.678Z,16.17
2022-10-24T17:07:14.520Z,16.22
2022-10-24T17:09:41.501Z,16.16
2022-10-24T17:12:08.868Z,16.08
2022-10-24T17:14:37.575Z,16.11
2022-10-24T17:17:05.149Z,16.14
2022-10-24T17:19:32.552Z,16.11
2022-10-24T17:21:59.549Z,15.97
2022-10-24T17:24:26.959Z,16.02
2022-10-24T17:26:54.414Z,15.96
2022-10-24T17:29:33.206Z,16.04
2022-10-24T17:32:00.743Z,16.00
2022-10-24T17:34:28.606Z,15.94
2022-10-24T17:37:13.802Z,15.92
2022-10-24T17:39:46.414Z,15.93
2022-10-24T17:42:13.514Z,15.92
2022-10-24T17:44:40.907Z,15.91
2022-10-24T17:47:08.122Z,15.88
2022-10-24T17:49:35.014Z,15.78
2022-10-24T17:52:02.054Z,15.81
2022-10-24T17:54:28.893Z,15.73
2022-10-24T17:56:55.717Z,15.74
2022-10-24T17:59:22.655Z,15.70
2022-10-24T18:01:49.759Z,15.69
2022-10-24T18:04:16.737Z,15.53
2022-10-24T18:06:43.654Z,15.45
2022-10-24T18:09:11.538Z,15.36
2022-10-24T18:11:40.108Z,15.36
2022-10-24T18:14:07.493Z,15.42
2022-10-24T18:16:34.555Z,15.36
2022-10-24T18:19:01.441Z,15.34
2022-10-24T18:21:28.584Z,15.30
2022-10-24T18:23:55.933Z,15.23
2022-10-24T18:26:25.224Z,15.12
2022-10-24T18:28:54.450Z,15.13
2022-10-24T18:31:24.530Z,15.20
2022-10-24T18:33:51.813Z,15.22
2022-10-24T18:36:24.694Z,15.22
2022-10-24T18:38:54.214Z,15.22
2022-10-24T18:41:34.767Z,15.01
2022-10-24T18:44:13.817Z,15.11
2022-10-24T18:46:41.145Z,15.15
2022-10-24T18:49:09.514Z,15.23
2022-10-24T18:51:41.848Z,15.20
2022-10-24T18:54:16.971Z,15.21
2022-10-24T18:56:44.166Z,15.17
2022-10-24T18:59:13.886Z,15.18
2022-10-24T19:02:02.567Z,15.18
2022-10-24T19:04:29.636Z,15.17
2022-10-24T19:06:59.668Z,15.08
2022-10-24T19:09:26.945Z,15.09
2022-10-24T19:11:53.934Z,15.12
2022-10-24T19:14:21.814Z,15.16
2022-10-24T19:16:50.799Z,15.22
2022-10-24T19:19:30.415Z,15.29
2022-10-24T19:21:57.352Z,15.37
2022-10-24T19:24:24.214Z,15.28
2022-10-24T19:26:51.207Z,15.28
2022-10-24T19:29:18.246Z,15.21
2022-10-24T19:31:45.815Z,15.15
2022-10-24T19:34:12.850Z,15.12
2022-10-24T19:36:39.782Z,15.08
2022-10-24T19:39:07.101Z,15.04
2022-10-24T19:41:34.132Z,15.10
2022-10-24T19:44:01.060Z,15.09
2022-10-24T19:46:28.209Z,15.18
2022-10-24T19:48:56.121Z,15.06
2022-10-24T19:51:23.525Z,15.04
2022-10-24T19:53:52.056Z,14.99
2022-10-24T19:56:25.393Z,14.96
2022-10-24T19:58:54.077Z,14.96
2022-10-24T20:01:23.852Z,14.94
2022-10-24T20:03:51.545Z,14.94
2022-10-24T20:06:24.064Z,14.90
2022-10-24T20:08:51.037Z,14.82
2022-10-24T20:11:20.548Z,14.83
2022-10-24T20:13:48.400Z,14.90
2022-10-24T20:16:15.194Z,14.86
2022-10-24T20:18:45.593Z,14.87
2022-10-24T20:21:15.079Z,14.92
2022-10-24T20:23:41.932Z,14.91
2022-10-24T20:26:14.895Z,14.94
2022-10-24T20:28:44.244Z,14.89
2022-10-24T20:31:24.461Z,14.84
2022-10-24T20:33:51.707Z,14.92
2022-10-24T20:36:21.423Z,15.01
2022-10-24T20:38:49.499Z,14.88
2022-10-24T20:41:16.387Z,14.89
2022-10-24T20:43:43.327Z,14.91
2022-10-24T20:46:10.554Z,14.79
2022-10-24T20:48:37.593Z,14.73
2022-10-24T20:51:15.989Z,14.76
2022-10-24T20:53:43.489Z,14.79
2022-10-24T20:56:12.997Z,14.88
2022-10-24T20:58:42.064Z,14.91
2022-10-24T21:01:14.904Z,14.85
2022-10-24T21:03:42.562Z,14.85
2022-10-24T21:06:21.188Z,14.84
2022-10-24T21:08:49.347Z,14.77
2022-10-24T21:11:24.943Z,14.82
2022-10-24T21:13:56.325Z,14.77
2022-10-24T21:16:24.621Z,14.68
2022-10-24T21:18:51.835Z,14.52
2022-10-24T21:21:20.176Z,14.48
2022-10-24T21:23:51.213Z,14.55
2022-10-24T21:26:18.529Z,14.56
2022-10-24T21:28:45.473Z,14.68
2022-10-24T21:31:17.490Z,14.86
2022-10-24T21:33:44.835Z,15.11
2022-10-24T21:36:14.504Z,15.16
2022-10-24T21:38:57.149Z,15.17
2022-10-24T21:41:24.998Z,15.13
2022-10-24T21:43:52.230Z,15.12
2022-10-24T21:46:27.213Z,15.06
2022-10-24T21:48:55.086Z,15.07
2022-10-24T21:51:24.729Z,15.06
2022-10-24T21:54:22.049Z,14.99
2022-10-24T21:56:49.048Z,14.97
2022-10-24T21:59:19.194Z,15.00
2022-10-24T22:01:47.966Z,15.01
2022-10-24T22:04:15.935Z,15.04
2022-10-24T22:06:43.693Z,15.06
2022-10-24T22:09:14.587Z,15.07
2022-10-24T22:11:42.425Z,15.03
2022-10-24T22:14:11.754Z,14.95
2022-10-24T22:16:38.890Z,14.96
2022-10-24T22:19:06.674Z,15.03
2022-10-24T22:21:38.914Z,15.05
2022-10-24T22:24:09.166Z,15.05
2022-10-24T22:26:36.978Z,15.06
2022-10-24T22:29:04.953Z,14.94
2022-10-24T22:31:32.117Z,15.07
2022-10-24T22:33:59.626Z,15.09
2022-10-24T22:36:43.418Z,14.99
2022-10-24T22:39:16.456Z,14.89
2022-10-24T22:41:44.275Z,14.94
2022-10-24T22:44:12.762Z,14.78
2022-10-24T22:47:17.026Z,14.74
2022-10-24T22:50:05.360Z,14.65
2022-10-24T22:52:32.749Z,14.61
2022-10-24T22:55:00.030Z,14.55
2022-10-24T22:57:28.488Z,14.53
2022-10-24T22:59:55.583Z,14.52
2022-10-24T23:02:33.187Z,14.47
2022-10-24T23:05:05.217Z,14.36
2022-10-24T23:08:09.778Z,14.30
2022-10-24T23:10:39.671Z,14.26
2022-10-24T23:13:06.801Z,14.16
2022-10-24T23:15:34.026Z,14.11
2022-10-24T23:18:01.168Z,14.07
2022-10-24T23:20:42.942Z,14.00
2022-10-24T23:23:28.378Z,14.01
2022-10-24T23:26:23.211Z,13.91
2022-10-24T23:29:12.831Z,13.82
2022-10-24T23:31:39.984Z,13.64
2022-10-24T23:34:09.650Z,13.70
2022-10-24T23:36:36.982Z,13.67
2022-10-24T23:39:04.062Z,13.66
2022-10-24T23:41:31.230Z,13.58
2022-10-24T23:43:58.305Z,13.55
2022-10-24T23:46:37.251Z,13.56
2022-10-24T23:49:33.267Z,13.48
2022-10-24T23:52:18.797Z,13.47
2022-10-24T23:54:45.937Z,13.45
2022-10-24T23:57:18.180Z,13.44
2022-10-24T23:59:45.294Z,13.41
